createdAt,value
2023-04-23T00:01:57.570Z,89.19
2023-04-23T00:04:26.347Z,88.95
2023-04-23T00:06:54.625Z,88.62
2023-04-23T00:09:22.156Z,87.90
2023-04-23T00:11:50.049Z,87.44
2023-04-23T00:14:17.712Z,86.96
2023-04-23T00:16:45.350Z,86.65
2023-04-23T00:19:12.937Z,86.39
2023-04-23T00:21:40.253Z,86.17
2023-04-23T00:24:08.226Z,86.11
2023-04-23T00:26:35.848Z,86.21
2023-04-23T00:29:03.579Z,86.26
2023-04-23T00:31:31.443Z,86.21
2023-04-23T00:33:58.534Z,86.40
2023-04-23T00:36:26.466Z,86.55
2023-04-23T00:38:54.159Z,86.80
2023-04-23T00:41:21.779Z,86.89
2023-04-23T00:43:49.175Z,87.37
2023-04-23T00:46:16.980Z,88.06
2023-04-23T00:48:44.763Z,88.38
2023-04-23T00:51:12.428Z,88.92
2023-04-23T00:53:40.390Z,89.31
2023-04-23T00:56:08.705Z,89.40
2023-04-23T00:58:36.700Z,89.24
2023-04-23T01:01:05.137Z,89.45
2023-04-23T01:03:34.744Z,89.55
2023-04-23T01:06:02.865Z,89.51
2023-04-23T01:08:30.758Z,89.97
2023-04-23T01:10:58.471Z,90.35
2023-04-23T01:13:29.845Z,90.67
2023-04-23T01:15:57.830Z,90.61
2023-04-23T01:18:25.281Z,90.47
2023-04-23T01:20:53.605Z,90.09
2023-04-23T01:23:21.938Z,89.88
2023-04-23T01:25:49.489Z,89.95
2023-04-23T01:28:16.989Z,89.79
2023-04-23T01:30:44.456Z,89.73
2023-04-23T01:33:12.449Z,89.71
2023-04-23T01:35:40.859Z,89.54
2023-04-23T01:38:11.114Z,89.68
2023-04-23T01:40:39.213Z,89.72
2023-04-23T01:43:07.672Z,89.90
2023-04-23T01:45:35.664Z,90.12
2023-04-23T01:48:03.788Z,90.32
2023-04-23T01:50:31.290Z,90.51
2023-04-23T01:52:58.822Z,90.80
2023-04-23T01:55:26.854Z,91.01
2023-04-23T01:57:54.016Z,90.84
2023-04-23T02:00:21.861Z,90.29
2023-04-23T02:02:50.674Z,90.32
2023-04-23T02:05:18.954Z,90.04
2023-04-23T02:07:47.383Z,89.85
2023-04-23T02:10:15.329Z,90.01
2023-04-23T02:12:42.907Z,89.97
2023-04-23T02:15:10.367Z,89.69
2023-04-23T02:17:40.169Z,89.28
2023-04-23T02:20:12.083Z,89.15
2023-04-23T02:22:40.378Z,88.98
2023-04-23T02:25:08.480Z,88.70
2023-04-23T02:27:36.350Z,88.58
2023-04-23T02:30:03.906Z,88.11
2023-04-23T02:32:31.524Z,87.74
2023-04-23T02:34:59.894Z,87.58
2023-04-23T02:37:27.621Z,87.33
2023-04-23T02:39:55.331Z,87.14
2023-04-23T02:42:22.849Z,87.32
2023-04-23T02:44:50.804Z,87.47
2023-04-23T02:47:18.465Z,87.28
2023-04-23T02:49:45.968Z,87.05
2023-04-23T02:52:13.889Z,87.22
2023-04-23T02:54:41.737Z,87.33
2023-04-23T02:57:09.652Z,87.31
2023-04-23T02:59:37.974Z,87.16
2023-04-23T03:02:06.586Z,87.00
2023-04-23T03:04:35.924Z,86.75
2023-04-23T03:07:04.059Z,86.54
2023-04-23T03:09:33.400Z,86.22
2023-04-23T03:12:00.749Z,85.97
2023-04-23T03:14:28.712Z,85.85
2023-04-23T03:16:57.203Z,86.18
2023-04-23T03:25:09.083Z,87.25
2023-04-23T03:27:39.027Z,87.87
2023-04-23T03:30:09.368Z,87.97
2023-04-23T03:32:37.658Z,88.82
2023-04-23T03:35:06.327Z,89.19
2023-04-23T03:37:34.485Z,89.70
2023-04-23T03:40:07.981Z,89.93
2023-04-23T03:42:37.681Z,90.02
2023-04-23T03:45:06.902Z,89.77
2023-04-23T03:47:37.149Z,88.89
2023-04-23T03:50:05.406Z,87.81
2023-04-23T03:52:33.567Z,87.39
2023-04-23T03:55:02.124Z,87.18
2023-04-23T03:57:39.831Z,86.57
2023-04-23T04:00:19.922Z,86.62
2023-04-23T04:02:47.324Z,86.11
2023-04-23T04:05:15.281Z,85.19
2023-04-23T04:07:43.508Z,84.38
2023-04-23T04:10:11.525Z,84.16
2023-04-23T04:12:39.936Z,84.00
2023-04-23T04:15:10.441Z,83.56
2023-04-23T04:17:38.598Z,83.02
2023-04-23T04:20:08.819Z,82.96
2023-04-23T04:22:36.415Z,82.90
2023-04-23T04:25:05.436Z,82.89
2023-04-23T04:27:37.695Z,82.80
2023-04-23T04:30:06.389Z,82.54
2023-04-23T04:32:34.575Z,82.43
2023-04-23T04:35:02.906Z,81.98
2023-04-23T04:37:30.624Z,80.92
2023-04-23T04:39:57.763Z,80.80
2023-04-23T04:42:25.603Z,80.64
2023-04-23T04:44:53.916Z,80.29
2023-04-23T04:47:22.117Z,79.23
2023-04-23T04:49:49.990Z,79.24
2023-04-23T04:52:17.739Z,78.58
2023-04-23T04:54:45.864Z,78.43
2023-04-23T04:57:13.957Z,78.00
2023-04-23T04:59:42.170Z,77.90
2023-04-23T05:02:10.528Z,77.21
2023-04-23T05:04:38.619Z,76.86
2023-04-23T05:07:06.712Z,76.43
2023-04-23T05:09:34.730Z,75.94
2023-04-23T05:12:02.216Z,75.67
2023-04-23T05:14:30.882Z,75.46
2023-04-23T05:16:58.974Z,75.11
2023-04-23T05:19:26.600Z,74.21
2023-04-23T05:21:54.505Z,73.25
2023-04-23T05:24:22.022Z,72.57
2023-04-23T05:26:50.105Z,72.07
2023-04-23T05:29:19.519Z,71.90
2023-04-23T05:31:47.017Z,71.39
2023-04-23T05:34:14.922Z,70.98
2023-04-23T05:36:42.596Z,70.86
2023-04-23T05:39:10.491Z,70.08
2023-04-23T05:41:38.484Z,68.71
2023-04-23T05:44:05.996Z,68.47
2023-04-23T05:46:33.581Z,67.37
2023-04-23T05:49:01.040Z,67.31
2023-04-23T05:51:28.544Z,67.00
2023-04-23T05:53:55.705Z,65.65
2023-04-23T05:56:23.611Z,63.94
2023-04-23T05:58:51.017Z,62.20
2023-04-23T06:01:19.086Z,62.22
2023-04-23T06:03:48.031Z,61.90
2023-04-23T06:06:16.236Z,60.96
2023-04-23T06:08:44.747Z,60.69
2023-04-23T06:11:13.866Z,61.33
2023-04-23T06:13:44.056Z,61.64
2023-04-23T06:16:12.188Z,61.91
2023-04-23T06:18:40.268Z,61.07
2023-04-23T06:21:07.922Z,61.31
2023-04-23T06:23:36.873Z,61.73
2023-04-23T06:26:05.782Z,60.87
2023-04-23T06:28:33.729Z,61.09
2023-04-23T06:31:22.254Z,60.50
2023-04-23T06:33:51.163Z,60.35
2023-04-23T06:36:19.387Z,58.77
2023-04-23T06:38:47.608Z,58.17
2023-04-23T06:41:15.488Z,57.90
2023-04-23T06:43:43.191Z,56.58
2023-04-23T06:46:31.975Z,55.65
2023-04-23T06:48:59.736Z,56.40
2023-04-23T06:51:27.965Z,56.03
2023-04-23T06:53:56.338Z,56.68
2023-04-23T06:56:24.124Z,56.87
2023-04-23T06:58:51.490Z,57.26
2023-04-23T07:01:21.453Z,56.89
2023-04-23T07:03:51.999Z,56.83
2023-04-23T07:06:19.863Z,56.58
2023-04-23T07:08:47.696Z,56.16
2023-04-23T07:11:15.403Z,55.86
2023-04-23T07:13:43.781Z,55.81
2023-04-23T07:16:12.080Z,55.72
2023-04-23T07:18:40.345Z,55.82
2023-04-23T07:21:08.827Z,55.21
2023-04-23T07:23:36.896Z,54.91
2023-04-23T07:26:05.092Z,54.56
2023-04-23T07:28:32.946Z,53.20
2023-04-23T07:31:00.839Z,51.85
2023-04-23T07:33:29.381Z,52.19
2023-04-23T07:35:57.830Z,52.18
2023-04-23T07:38:26.200Z,51.56
2023-04-23T07:40:53.738Z,50.74
2023-04-23T07:43:22.236Z,49.67
2023-04-23T07:45:50.861Z,48.45
2023-04-23T07:48:18.736Z,48.21
2023-04-23T07:50:46.969Z,47.89
2023-04-23T07:53:15.234Z,47.03
2023-04-23T07:55:43.165Z,47.12
2023-04-23T07:58:11.082Z,47.66
2023-04-23T08:00:39.884Z,47.79
2023-04-23T08:03:07.988Z,47.36
2023-04-23T08:05:38.719Z,46.91
2023-04-23T08:08:06.539Z,45.29
2023-04-23T08:10:34.473Z,44.67
2023-04-23T08:13:03.203Z,44.28
2023-04-23T08:15:31.649Z,43.27
2023-04-23T08:17:59.807Z,42.87
2023-04-23T08:20:27.711Z,42.01
2023-04-23T08:22:56.681Z,42.26
2023-04-23T08:25:24.414Z,41.79
2023-04-23T08:27:52.681Z,40.77
2023-04-23T08:30:20.255Z,40.14
2023-04-23T08:32:51.104Z,38.73
2023-04-23T08:35:19.651Z,38.68
2023-04-23T08:37:47.100Z,38.72
2023-04-23T08:40:15.175Z,38.72
2023-04-23T08:43:11.690Z,38.54
2023-04-23T08:45:41.727Z,37.53
2023-04-23T08:48:09.687Z,37.86
2023-04-23T08:50:38.465Z,37.83
2023-04-23T08:53:07.492Z,38.41
2023-04-23T08:55:36.725Z,38.88
2023-04-23T08:58:06.878Z,39.03
2023-04-23T09:00:35.746Z,39.40
2023-04-23T09:03:04.783Z,40.23
2023-04-23T09:05:32.646Z,40.37
2023-04-23T09:08:00.126Z,39.67
2023-04-23T09:10:27.560Z,39.28
2023-04-23T09:12:55.503Z,40.29
2023-04-23T09:15:23.297Z,39.88
2023-04-23T09:17:53.014Z,37.11
2023-04-23T09:20:21.045Z,36.12
2023-04-23T09:22:49.655Z,36.46
2023-04-23T09:25:22.125Z,36.38
2023-04-23T09:27:50.956Z,36.69
2023-04-23T09:30:19.821Z,34.46
2023-04-23T09:32:48.150Z,33.33
2023-04-23T09:35:17.718Z,32.50
2023-04-23T09:37:49.517Z,32.77
2023-04-23T09:40:20.368Z,33.60
2023-04-23T09:42:54.354Z,33.72
2023-04-23T09:45:22.826Z,34.06
2023-04-23T09:47:55.847Z,34.18
2023-04-23T09:50:40.323Z,34.32
2023-04-23T09:53:09.312Z,35.08
2023-04-23T09:55:39.486Z,35.93
2023-04-23T09:58:11.445Z,36.26
2023-04-23T10:00:40.253Z,36.52
2023-04-23T10:03:09.087Z,36.64
2023-04-23T10:08:16.129Z,37.76
2023-04-23T10:10:57.406Z,38.19
2023-04-23T10:13:28.813Z,38.61
2023-04-23T10:16:07.099Z,38.67
2023-04-23T10:18:42.231Z,38.86
2023-04-23T10:21:12.259Z,38.93
2023-04-23T10:23:40.341Z,39.08
2023-04-23T10:26:09.696Z,38.72
2023-04-23T10:28:37.734Z,38.54
2023-04-23T10:31:05.821Z,38.48
2023-04-23T10:33:42.671Z,37.92
2023-04-23T10:36:17.721Z,38.22
2023-04-23T10:38:57.160Z,38.18
2023-04-23T10:41:28.167Z,37.55
2023-04-23T10:43:56.501Z,37.53
2023-04-23T10:46:31.868Z,38.06
2023-04-23T10:49:16.716Z,38.67
2023-04-23T10:54:20.256Z,39.97
2023-04-23T10:56:49.412Z,40.26
2023-04-23T10:59:20.797Z,40.89
2023-04-23T11:01:49.612Z,41.49
2023-04-23T11:04:28.918Z,41.14
2023-04-23T11:07:05.408Z,41.74
2023-04-23T11:09:49.167Z,41.27
2023-04-23T11:12:30.492Z,40.53
2023-04-23T11:15:01.466Z,40.05
2023-04-23T11:17:32.669Z,40.30
2023-04-23T11:20:14.412Z,39.79
2023-04-23T11:22:44.156Z,39.37
2023-04-23T11:25:13.029Z,39.09
2023-04-23T11:27:44.847Z,39.13
2023-04-23T11:30:14.555Z,39.56
2023-04-23T11:32:42.597Z,39.50
2023-04-23T11:35:13.618Z,39.20
2023-04-23T11:37:42.579Z,39.22
2023-04-23T11:40:11.685Z,40.92
2023-04-23T11:42:53.712Z,43.22
2023-04-23T11:45:25.733Z,44.33
2023-04-23T11:47:57.372Z,45.25
2023-04-23T11:50:26.198Z,45.24
2023-04-23T11:52:54.044Z,45.35
2023-04-23T11:55:22.367Z,45.23
2023-04-23T11:57:51.008Z,45.68
2023-04-23T12:00:22.782Z,46.70
2023-04-23T12:03:01.222Z,46.51
2023-04-23T12:05:29.261Z,46.29
2023-04-23T12:08:10.852Z,46.66
2023-04-23T12:11:02.174Z,45.88
2023-04-23T12:13:33.807Z,46.37
2023-04-23T12:16:04.066Z,46.31
2023-04-23T12:18:42.681Z,46.57
2023-04-23T12:21:13.698Z,46.35
2023-04-23T12:23:42.136Z,46.78
2023-04-23T12:26:13.867Z,46.70
2023-04-23T12:28:51.550Z,46.36
2023-04-23T12:31:23.552Z,45.51
2023-04-23T12:34:06.859Z,45.33
2023-04-23T12:36:39.939Z,45.32
2023-04-23T12:39:29.509Z,44.67
2023-04-23T12:42:00.330Z,44.36
2023-04-23T12:44:28.597Z,43.38
2023-04-23T12:47:00.695Z,42.57
2023-04-23T12:49:29.554Z,42.11
2023-04-23T12:51:57.940Z,41.77
2023-04-23T12:54:31.688Z,41.34
2023-04-23T12:57:02.124Z,41.10
2023-04-23T12:59:30.770Z,41.04
2023-04-23T13:02:02.427Z,40.60
2023-04-23T13:04:35.534Z,40.62
2023-04-23T13:07:03.876Z,40.78
2023-04-23T13:09:32.262Z,40.65
2023-04-23T13:12:01.106Z,40.16
2023-04-23T13:14:29.421Z,39.39
2023-04-23T13:17:00.822Z,38.79
2023-04-23T13:19:29.225Z,37.82
2023-04-23T13:21:57.392Z,37.80
2023-04-23T13:24:26.970Z,37.97
2023-04-23T13:26:55.608Z,38.18
2023-04-23T13:29:27.551Z,38.27
2023-04-23T13:31:56.070Z,38.31
2023-04-23T13:34:24.370Z,38.56
2023-04-23T13:36:52.332Z,39.05
2023-04-23T13:39:20.641Z,38.56
2023-04-23T13:41:59.050Z,38.62
2023-04-23T13:44:34.447Z,39.54
2023-04-23T13:47:02.796Z,39.35
2023-04-23T13:49:30.785Z,39.53
2023-04-23T13:52:01.215Z,39.99
2023-04-23T13:54:29.504Z,40.16
2023-04-23T13:56:57.378Z,40.00
2023-04-23T13:59:25.591Z,40.24
2023-04-23T14:01:53.385Z,40.41
2023-04-23T14:04:24.271Z,40.11
2023-04-23T14:06:53.032Z,40.44
2023-04-23T14:09:23.183Z,40.60
2023-04-23T14:11:51.209Z,40.48
2023-04-23T14:14:18.969Z,40.75
2023-04-23T14:16:46.911Z,40.74
2023-04-23T14:19:15.077Z,40.87
2023-04-23T14:21:42.965Z,41.06
2023-04-23T14:24:24.876Z,40.68
2023-04-23T14:26:52.546Z,40.80
2023-04-23T14:29:32.145Z,40.84
2023-04-23T14:31:59.965Z,40.93
2023-04-23T14:34:28.290Z,40.88
2023-04-23T14:36:56.939Z,41.03
2023-04-23T14:39:26.406Z,41.11
2023-04-23T14:41:54.788Z,41.09
2023-04-23T14:44:27.189Z,41.10
2023-04-23T14:46:57.795Z,41.37
2023-04-23T14:49:26.330Z,41.60
2023-04-23T14:51:55.714Z,41.38
2023-04-23T14:54:25.081Z,41.26
2023-04-23T14:56:55.206Z,40.50
2023-04-23T14:59:24.384Z,40.63
2023-04-23T15:01:53.708Z,40.62
2023-04-23T15:04:22.530Z,40.49
2023-04-23T15:06:51.951Z,40.52
2023-04-23T15:09:20.770Z,40.69
2023-04-23T15:11:49.885Z,40.81
2023-04-23T15:14:32.073Z,40.84
2023-04-23T15:17:01.517Z,40.15
2023-04-23T15:19:33.310Z,40.16
2023-04-23T15:22:03.119Z,39.48
2023-04-23T15:24:32.363Z,38.89
2023-04-23T15:27:01.310Z,38.73
2023-04-23T15:29:31.195Z,38.87
2023-04-23T15:32:01.079Z,39.15
2023-04-23T15:34:31.404Z,39.55
2023-04-23T15:37:01.002Z,40.00
2023-04-23T15:42:18.536Z,40.97
2023-04-23T15:51:02.150Z,41.64
2023-04-23T15:53:31.005Z,41.99
2023-04-23T15:55:59.911Z,42.48
2023-04-23T15:58:28.560Z,42.69
2023-04-23T16:00:57.040Z,42.95
2023-04-23T16:03:26.908Z,42.92
2023-04-23T16:05:55.119Z,43.20
2023-04-23T16:08:22.888Z,43.33
2023-04-23T16:10:51.540Z,43.50
2023-04-23T16:21:20.416Z,44.32
2023-04-23T16:23:49.658Z,44.27
2023-04-23T16:26:21.772Z,44.30
2023-04-23T16:28:56.330Z,44.52
2023-04-23T16:31:29.285Z,44.59
2023-04-23T16:33:58.227Z,44.65
2023-04-23T16:36:26.420Z,44.98
2023-04-23T16:38:54.721Z,45.23
2023-04-23T16:41:22.934Z,45.39
